Time;durP1;ratioP1;P1;durP2;ratioP2;P2;SDS_P1;SDS_P2;PMS_P1;PMS_P2;Temp;Humidity;BMP_temperature;BMP_pressure;BME280_temperature;BME280_humidity;BME280_pressure;Samples;Min_cycle;Max_cycle;Signal;HPM_P1;HPM_P2
2022/12/21 00:05:44;;;;;;;6.43;4.80;;;4.20;72.70;;;;;;5135434;27;20121;-52
2022/12/21 00:08:09;;;;;;;5.90;4.63;;;4.20;72.80;;;;;;5115530;28;20047;-52
2022/12/21 00:10:35;;;;;;;6.28;4.57;;;4.20;72.70;;;;;;5115626;28;20531;-51
2022/12/21 00:13:00;;;;;;;5.65;4.45;;;4.20;72.70;;;;;;5115921;28;20453;-51
2022/12/21 00:15:26;;;;;;;8.07;5.50;;;4.20;72.70;;;;;;5115418;28;20039;-52
2022/12/21 00:17:52;;;;;;;5.82;4.43;;;4.20;72.70;;;;;;5115305;28;20039;-52
2022/12/21 00:20:18;;;;;;;5.90;4.53;;;4.20;72.70;;;;;;5115735;28;20058;-50
2022/12/21 00:22:43;;;;;;;5.90;4.40;;;4.20;72.70;;;;;;5115612;28;20457;-51
2022/12/21 00:25:09;;;;;;;6.20;4.43;;;4.20;72.70;;;;;;5115458;28;20381;-53
2022/12/21 00:27:34;;;;;;;5.28;4.50;;;4.30;72.70;;;;;;5114660;28;20024;-51
2022/12/21 00:30:00;;;;;;;5.18;4.22;;;4.30;72.60;;;;;;5108462;28;20035;-53
2022/12/21 00:32:26;;;;;;;7.47;5.00;;;4.30;72.40;;;;;;5094988;28;20020;-52
2022/12/21 00:34:52;;;;;;;5.53;4.88;;;4.30;72.40;;;;;;5114335;28;20084;-50
2022/12/21 00:37:18;;;;;;;6.55;4.80;;;4.20;72.40;;;;;;5115003;28;20043;-51
2022/12/21 00:39:43;;;;;;;5.20;4.35;;;4.20;72.40;;;;;;5115815;28;20377;-50
2022/12/21 00:42:09;;;;;;;5.85;4.78;;;4.20;72.50;;;;;;5115111;28;20053;-53
2022/12/21 00:44:35;;;;;;;6.05;4.70;;;4.20;72.50;;;;;;5114913;28;20501;-49
2022/12/21 00:47:00;;;;;;;5.57;4.60;;;4.20;72.60;;;;;;5098298;28;20032;-52
2022/12/21 00:49:26;;;;;;;5.68;4.32;;;4.20;72.50;;;;;;5100735;27;20024;-53
2022/12/21 00:51:51;;;;;;;6.43;4.43;;;4.20;72.50;;;;;;5124628;27;20385;-50
2022/12/21 00:54:17;;;;;;;6.00;4.80;;;4.20;72.50;;;;;;5103303;27;20024;-49
2022/12/21 00:56:43;;;;;;;6.43;4.20;;;4.20;72.40;;;;;;5135250;27;20030;-52
2022/12/21 00:59:08;;;;;;;6.18;4.43;;;4.30;72.50;;;;;;5126271;27;20505;-52
2022/12/21 01:01:34;;;;;;;6.05;4.45;;;4.30;72.50;;;;;;5102020;28;20023;-51
2022/12/21 01:04:00;;;;;;;6.75;5.38;;;4.30;72.50;;;;;;5102771;28;20027;-50
2022/12/21 01:06:33;;;;;;;7.88;5.00;;;4.30;72.50;;;;;;5094364;28;20047;-53
2022/12/21 01:08:59;;;;;;;7.47;4.95;;;4.30;72.40;;;;;;5116406;27;20015;-53
2022/12/21 01:11:27;;;;;;;7.38;5.15;;;4.30;72.40;;;;;;5115107;28;20470;-53
2022/12/21 01:13:54;;;;;;;5.97;4.50;;;4.30;72.40;;;;;;5102158;28;20028;-51
2022/12/21 01:16:26;;;;;;;6.93;4.97;;;4.30;72.30;;;;;;5094049;28;20028;-48
2022/12/21 01:18:52;;;;;;;6.95;4.93;;;4.30;72.40;;;;;;5094183;28;20078;-51
2022/12/21 01:21:24;;;;;;;5.53;4.43;;;4.30;72.40;;;;;;5113988;27;20024;-52
2022/12/21 01:23:50;;;;;;;;;;;4.30;72.30;;;;;;5094415;28;20028;-52
2022/12/21 01:26:17;;;;;;;6.03;4.28;;;4.20;72.20;;;;;;5114899;27;20372;-53
2022/12/21 01:28:43;;;;;;;6.40;4.70;;;4.20;72.30;;;;;;5123865;27;20069;-54
2022/12/21 01:31:08;;;;;;;7.25;5.15;;;4.20;72.30;;;;;;5094273;28;20024;-50
2022/12/21 01:33:34;;;;;;;6.93;5.03;;;4.20;72.50;;;;;;5094177;28;20027;-53
2022/12/21 01:36:07;;;;;;;6.20;4.50;;;4.20;72.50;;;;;;5126808;27;20019;-53
2022/12/21 01:38:34;;;;;;;6.05;4.55;;;4.10;72.60;;;;;;5121320;27;20100;-57
2022/12/21 01:41:00;;;;;;;5.90;4.70;;;4.10;72.60;;;;;;5114457;28;20428;-53
2022/12/21 01:43:48;;;;;;;7.10;4.90;;;4.10;72.70;;;;;;5113961;28;20028;-52
2022/12/21 01:46:17;;;;;;;6.32;5.03;;;4.10;72.60;;;;;;5126733;27;20075;-52
2022/12/21 01:48:53;;;;;;;6.53;4.60;;;4.10;72.50;;;;;;5114128;28;20016;-51
2022/12/21 01:51:19;;;;;;;7.00;4.78;;;4.10;72.60;;;;;;5095833;28;20026;-52
2022/12/21 01:54:14;;;;;;;5.47;4.68;;;4.10;72.70;;;;;;5113997;28;20019;-52
2022/12/21 01:56:43;;;;;;;6.35;4.95;;;4.10;73.20;;;;;;5113942;28;20141;-53
2022/12/21 01:59:16;;;;;;;6.72;4.72;;;4.10;72.70;;;;;;5114784;28;20088;-49
2022/12/21 02:01:42;;;;;;;6.57;4.95;;;4.10;72.80;;;;;;5114031;28;20500;-53
2022/12/21 02:04:08;;;;;;;7.05;4.57;;;4.20;72.80;;;;;;5113916;28;20028;-50
2022/12/21 02:06:45;;;;;;;5.63;4.55;;;4.20;72.90;;;;;;5113928;28;20030;-52
2022/12/21 02:09:13;;;;;;;6.95;4.53;;;4.20;72.80;;;;;;5131965;28;20549;-53
2022/12/21 02:11:39;;;;;;;6.60;5.00;;;4.30;72.60;;;;;;5134653;28;20023;-54
2022/12/21 02:14:14;;;;;;;6.68;4.50;;;4.40;72.50;;;;;;5116832;28;20044;-53
2022/12/21 02:16:42;;;;;;;6.18;4.88;;;4.40;72.30;;;;;;5093720;28;20016;-50
2022/12/21 02:19:27;;;;;;;6.55;4.70;;;4.40;72.30;;;;;;5094503;28;20390;-49
2022/12/21 02:22:11;;;;;;;6.68;4.93;;;4.40;72.30;;;;;;5122816;28;20063;-52
2022/12/21 02:25:01;;;;;;;6.78;5.13;;;4.40;72.30;;;;;;5113871;28;20024;-52
2022/12/21 02:27:27;;;;;;;7.55;5.32;;;4.50;72.30;;;;;;5121437;28;20094;-52
2022/12/21 02:30:04;;;;;;;6.82;5.32;;;4.50;72.00;;;;;;5134304;28;20131;-51
2022/12/21 02:32:42;;;;;;;7.22;5.10;;;4.60;71.90;;;;;;5134144;28;20042;-48
2022/12/21 02:35:32;;;;;;;7.95;5.45;;;4.50;72.10;;;;;;5100822;28;20039;-51
2022/12/21 02:38:16;;;;;;;9.38;5.50;;;4.50;72.20;;;;;;5113113;28;20043;-52
2022/12/21 02:41:01;;;;;;;6.88;5.28;;;4.60;72.10;;;;;;5113623;28;20038;-53
2022/12/21 02:46:27;;;;;;;7.00;5.15;;;4.70;71.80;;;;;;5113605;28;20143;-48
2022/12/21 02:48:57;;;;;;;6.57;4.97;;;4.60;71.80;;;;;;5113622;28;20016;-48
2022/12/21 02:51:32;;;;;;;6.53;4.63;;;4.60;71.90;;;;;;5115461;28;20019;-48
2022/12/21 02:53:58;;;;;;;7.57;5.03;;;4.60;72.00;;;;;;5117415;28;20110;-51
2022/12/21 02:56:23;;;;;;;7.43;5.20;;;4.70;71.90;;;;;;5117127;28;20106;-53
2022/12/21 02:58:49;;;;;;;6.95;5.03;;;4.70;71.80;;;;;;5129833;27;20024;-53
2022/12/21 03:01:52;;;;;;;5.95;4.93;;;4.70;71.80;;;;;;5117021;28;20493;-49
2022/12/21 03:04:37;;;;;;;6.97;4.82;;;4.80;71.80;;;;;;5065488;28;20124;-50
2022/12/21 03:07:08;;;;;;;6.75;5.20;;;4.80;71.70;;;;;;5096566;28;20044;-51
2022/12/21 03:09:41;;;;;;;7.10;5.03;;;4.70;71.80;;;;;;5119433;27;20511;-52
2022/12/21 03:12:27;;;;;;;7.10;5.30;;;4.80;71.80;;;;;;5115016;27;20025;-53
2022/12/21 03:15:06;;;;;;;7.95;5.47;;;4.80;71.70;;;;;;5094117;28;20032;-52
2022/12/21 03:17:43;;;;;;;8.32;5.75;;;4.90;71.60;;;;;;5116954;28;20028;-51
2022/12/21 03:20:35;;;;;;;9.52;6.47;;;4.90;71.40;;;;;;5126199;27;20377;-50
2022/12/21 03:23:26;;;;;;;8.98;6.63;;;5.00;71.30;;;;;;5137449;27;20102;-52
2022/12/21 03:26:02;;;;;;;9.07;6.35;;;4.90;71.10;;;;;;5130032;27;20034;-52
2022/12/21 03:28:32;;;;;;;8.95;6.70;;;4.90;71.30;;;;;;5116783;28;20474;-52
2022/12/21 03:31:06;;;;;;;8.88;6.72;;;4.90;71.30;;;;;;5116741;28;20023;-52
2022/12/21 03:33:37;;;;;;;9.77;6.35;;;4.80;71.40;;;;;;5111437;28;20023;-50
2022/12/21 03:36:11;;;;;;;8.85;6.28;;;4.80;71.60;;;;;;5112054;28;20386;-52
2022/12/21 03:38:43;;;;;;;8.30;5.75;;;4.80;71.50;;;;;;5122088;27;20129;-52
2022/12/21 03:41:32;;;;;;;9.20;5.93;;;4.80;71.60;;;;;;5128200;27;20052;-52
2022/12/21 03:44:01;;;;;;;7.20;5.03;;;4.80;71.60;;;;;;5103524;28;20397;-54
2022/12/21 03:46:50;;;;;;;7.45;5.57;;;4.80;71.60;;;;;;5116241;28;20019;-54
2022/12/21 03:49:41;;;;;;;8.02;5.72;;;4.80;71.40;;;;;;5116340;28;20026;-53
2022/12/21 03:52:13;;;;;;;8.00;5.78;;;4.80;71.30;;;;;;5129381;27;20476;-53
2022/12/21 03:55:04;;;;;;;9.13;6.07;;;4.90;71.20;;;;;;5135319;27;20476;-50
2022/12/21 03:57:30;;;;;;;9.38;6.28;;;4.90;71.30;;;;;;5103791;28;20023;-53
2022/12/21 04:00:00;;;;;;;7.15;5.70;;;4.90;71.20;;;;;;5116212;28;20034;-51
2022/12/21 04:02:32;;;;;;;8.52;6.28;;;4.90;71.10;;;;;;5127655;27;20027;-51
2022/12/21 04:05:30;;;;;;;8.43;6.07;;;4.90;71.00;;;;;;5136421;27;20485;-53
2022/12/21 04:07:56;;;;;;;8.10;6.22;;;4.80;70.90;;;;;;5137062;27;20019;-50
2022/12/21 04:10:23;;;;;;;8.82;5.88;;;4.80;71.20;;;;;;5133518;27;20024;-49
2022/12/21 04:32:42;;;;;;;6.78;5.10;;;4.50;72.10;;;;;;5117267;27;19910;-51
2022/12/21 04:35:08;;;;;;;8.43;5.70;;;4.60;72.00;;;;;;5115443;28;20024;-50
2022/12/21 04:37:35;;;;;;;7.90;5.70;;;4.60;71.70;;;;;;5114839;28;20047;-48
2022/12/21 04:40:02;;;;;;;7.55;5.35;;;4.70;71.60;;;;;;5115353;28;20015;-52
2022/12/21 04:42:28;;;;;;;7.10;5.43;;;4.70;71.60;;;;;;5095187;28;20020;-53
2022/12/21 04:44:54;;;;;;;7.85;6.35;;;4.70;71.70;;;;;;5129755;27;20109;-53
2022/12/21 04:47:20;;;;;;;7.75;6.10;;;4.70;71.60;;;;;;5135797;27;20034;-52
2022/12/21 04:49:45;;;;;;;8.23;6.03;;;4.70;71.50;;;;;;5135525;27;20026;-51
2022/12/21 04:52:11;;;;;;;8.77;6.00;;;4.70;71.30;;;;;;5121704;27;20450;-52
2022/12/21 04:54:37;;;;;;;9.07;6.47;;;4.70;71.30;;;;;;5114921;28;20032;-52
2022/12/21 04:57:02;;;;;;;8.57;6.03;;;4.70;71.20;;;;;;5102164;28;20393;-51
2022/12/21 04:59:28;;;;;;;9.40;5.85;;;4.70;71.30;;;;;;5114944;28;20488;-53
2022/12/21 05:01:53;;;;;;;8.25;6.70;;;4.70;71.30;;;;;;5121965;27;20031;-51
2022/12/21 05:04:19;;;;;;;8.95;6.28;;;4.80;71.40;;;;;;5135133;27;20034;-53
2022/12/21 05:06:45;;;;;;;8.68;6.32;;;4.80;71.30;;;;;;5135361;27;20031;-52
2022/12/21 05:09:13;;;;;;;8.05;5.85;;;4.90;71.30;;;;;;5117203;27;20037;-53
2022/12/21 05:11:38;;;;;;;8.38;5.65;;;4.90;71.20;;;;;;5114465;28;20148;-53
2022/12/21 05:14:04;;;;;;;8.25;6.28;;;4.90;71.10;;;;;;5123116;27;20068;-50
2022/12/21 05:16:30;;;;;;;8.40;6.38;;;4.90;71.20;;;;;;5114663;28;20063;-53
2022/12/21 05:18:56;;;;;;;9.20;6.63;;;4.90;71.30;;;;;;5114618;28;20537;-51
2022/12/21 05:21:22;;;;;;;10.38;6.72;;;4.80;71.50;;;;;;5114414;28;20478;-52
2022/12/21 05:23:48;;;;;;;8.68;6.35;;;4.80;71.40;;;;;;5101529;28;20389;-53
2022/12/21 05:26:15;;;;;;;9.48;6.78;;;4.70;71.50;;;;;;5114246;28;20485;-53
2022/12/21 06:04:47;;;;;;;9.82;7.78;;;4.80;71.20;;;;;;2176589;28;19942;-51
2022/12/21 06:07:13;;;;;;;12.05;7.75;;;4.90;71.10;;;;;;5113608;28;20032;-52
2022/12/21 06:09:39;;;;;;;11.30;8.07;;;4.90;71.20;;;;;;5113640;28;20031;-53
2022/12/21 06:12:05;;;;;;;10.85;7.55;;;4.90;71.20;;;;;;5113508;28;20038;-51
2022/12/21 06:14:30;;;;;;;11.25;8.30;;;4.90;71.10;;;;;;5113636;28;20019;-50
2022/12/21 06:16:56;;;;;;;10.50;8.07;;;4.90;71.10;;;;;;5113729;28;20015;-52
2022/12/21 06:19:22;;;;;;;10.20;7.88;;;4.90;71.10;;;;;;5113710;28;20016;-53
2022/12/21 06:21:47;;;;;;;12.75;8.75;;;4.90;70.90;;;;;;5113485;28;20100;-53
2022/12/21 06:24:13;;;;;;;13.32;8.40;;;5.00;71.00;;;;;;5114033;28;20031;-52
2022/12/21 06:26:38;;;;;;;9.70;7.28;;;5.00;70.90;;;;;;5116358;28;20034;-52
2022/12/21 06:29:04;;;;;;;10.10;7.65;;;5.00;70.90;;;;;;5117872;28;20033;-53
2022/12/21 06:31:30;;;;;;;12.57;8.07;;;5.10;71.00;;;;;;5117648;28;20023;-53
2022/12/21 06:33:55;;;;;;;10.63;7.05;;;5.20;71.10;;;;;;5117738;28;20210;-53
2022/12/21 06:36:21;;;;;;;9.82;7.60;;;5.20;71.10;;;;;;5108321;28;20148;-51
2022/12/21 06:38:47;;;;;;;9.63;7.22;;;5.20;71.00;;;;;;5124305;27;20084;-53
2022/12/21 06:41:14;;;;;;;13.75;9.23;;;5.30;71.00;;;;;;5117885;28;20027;-52
2022/12/21 06:43:41;;;;;;;11.57;8.35;;;5.30;70.70;;;;;;5117238;28;20039;-51
2022/12/21 06:46:13;;;;;;;9.40;7.13;;;5.40;70.50;;;;;;5118182;28;20434;-50
2022/12/21 06:48:39;;;;;;;11.10;8.07;;;5.40;70.40;;;;;;5098106;28;20024;-49
2022/12/21 06:51:08;;;;;;;9.82;7.43;;;5.30;70.40;;;;;;5097314;28;20057;-53
2022/12/21 06:53:36;;;;;;;9.20;7.10;;;5.30;70.60;;;;;;5097184;28;20050;-48
2022/12/21 06:56:03;;;;;;;9.38;7.80;;;5.30;70.80;;;;;;5097159;28;20021;-53
2022/12/21 06:58:30;;;;;;;11.27;7.75;;;5.30;70.90;;;;;;5097663;28;20059;-52
2022/12/21 07:00:56;;;;;;;12.20;8.20;;;5.30;70.90;;;;;;5097081;28;20024;-54
2022/12/21 07:03:22;;;;;;;11.88;9.02;;;5.30;70.70;;;;;;5096698;28;20024;-51
2022/12/21 07:05:49;;;;;;;11.70;8.55;;;5.40;70.70;;;;;;5110279;28;20428;-53
2022/12/21 07:08:16;;;;;;;14.70;9.85;;;5.40;70.70;;;;;;5116099;28;20020;-52
2022/12/21 07:10:41;;;;;;;13.35;9.60;;;5.40;70.60;;;;;;5102234;28;20084;-50
2022/12/21 07:13:07;;;;;;;12.68;9.27;;;5.50;70.70;;;;;;5115809;28;20027;-54
2022/12/21 07:15:33;;;;;;;12.65;9.68;;;5.50;70.50;;;;;;5096774;28;20028;-50
2022/12/21 07:17:59;;;;;;;11.38;9.27;;;5.60;70.40;;;;;;5096709;28;20103;-52
2022/12/21 07:20:24;;;;;;;12.65;9.52;;;5.60;70.10;;;;;;5096699;28;20056;-54
2022/12/21 07:22:50;;;;;;;12.18;8.95;;;5.70;70.10;;;;;;5096708;28;20024;-49
2022/12/21 07:25:16;;;;;;;12.35;8.93;;;5.70;70.00;;;;;;5096456;28;20111;-51
2022/12/21 07:27:42;;;;;;;13.65;10.23;;;5.80;70.00;;;;;;5096812;28;20027;-52
2022/12/21 07:30:08;;;;;;;13.05;9.68;;;5.80;70.10;;;;;;5096368;28;20234;-54
2022/12/21 07:32:33;;;;;;;12.85;9.48;;;5.80;70.00;;;;;;5095934;28;20081;-51
2022/12/21 07:34:59;;;;;;;13.45;9.65;;;5.80;69.90;;;;;;5096163;28;20111;-52
2022/12/21 07:37:25;;;;;;;13.50;9.90;;;5.80;69.80;;;;;;5095971;28;20067;-50
2022/12/21 07:39:50;;;;;;;12.65;9.73;;;5.70;69.80;;;;;;5096198;28;20024;-49
2022/12/21 07:42:16;;;;;;;14.20;9.35;;;5.70;69.90;;;;;;5096066;28;20055;-53
2022/12/21 07:44:41;;;;;;;12.57;9.77;;;5.60;70.20;;;;;;5096011;28;20080;-51
2022/12/21 07:47:07;;;;;;;14.52;10.77;;;5.60;70.20;;;;;;5096133;28;20027;-52
2022/12/21 07:49:34;;;;;;;14.10;9.68;;;5.60;70.20;;;;;;5095989;28;20044;-52
2022/12/21 07:52:00;;;;;;;15.45;10.73;;;5.60;70.30;;;;;;5095892;28;20031;-53
2022/12/21 07:54:26;;;;;;;14.20;10.23;;;5.70;70.40;;;;;;5095781;28;20385;-52
2022/12/21 07:56:52;;;;;;;12.95;9.73;;;5.70;70.20;;;;;;5095905;28;20028;-53
2022/12/21 07:59:18;;;;;;;19.77;14.48;;;5.80;70.20;;;;;;5095593;28;20034;-53
2022/12/21 08:01:44;;;;;;;16.27;11.05;;;5.80;70.20;;;;;;5095554;28;20361;-53
2022/12/21 08:04:09;;;;;;;13.93;10.25;;;5.80;70.10;;;;;;5095668;28;20111;-50
2022/12/21 08:06:35;;;;;;;14.20;10.45;;;5.80;70.10;;;;;;5095385;28;20058;-50
2022/12/21 08:09:03;;;;;;;14.20;9.85;;;5.80;70.00;;;;;;5095874;28;20052;-51
2022/12/21 08:11:31;;;;;;;16.38;10.88;;;5.80;70.00;;;;;;5095506;28;20030;-54
2022/12/21 08:13:57;;;;;;;15.80;12.60;;;5.80;70.00;;;;;;5095487;28;20020;-53
2022/12/21 08:16:23;;;;;;;15.82;11.82;;;5.80;70.10;;;;;;5095688;28;20373;-55
2022/12/21 08:18:49;;;;;;;16.70;11.23;;;5.90;70.10;;;;;;5095471;28;20070;-53
2022/12/21 08:21:15;;;;;;;16.23;11.90;;;5.90;70.10;;;;;;5095453;28;20020;-53
2022/12/21 08:23:42;;;;;;;14.60;11.65;;;6.00;70.00;;;;;;5095423;28;20020;-49
2022/12/21 08:26:10;;;;;;;17.35;11.73;;;6.10;69.90;;;;;;5096034;28;20027;-51
2022/12/21 08:28:36;;;;;;;15.18;11.40;;;6.20;69.70;;;;;;5095436;28;20048;-52
2022/12/21 08:31:05;;;;;;;19.38;13.27;;;6.20;69.60;;;;;;5095340;28;20490;-51
2022/12/21 08:33:31;;;;;;;15.52;11.68;;;6.30;69.40;;;;;;5095435;28;20020;-53
2022/12/21 08:35:57;;;;;;;18.13;13.50;;;6.40;69.40;;;;;;5095314;28;20028;-52
2022/12/21 08:38:22;;;;;;;17.52;13.27;;;6.50;69.20;;;;;;5095353;28;20030;-53
2022/12/21 08:40:48;;;;;;;19.25;13.15;;;6.50;69.00;;;;;;5095416;28;20107;-50
2022/12/21 08:43:14;;;;;;;18.45;12.80;;;6.60;68.90;;;;;;5095520;28;20032;-50
2022/12/21 08:45:40;;;;;;;17.90;12.32;;;6.70;68.80;;;;;;5095507;28;20103;-49
2022/12/21 08:48:06;;;;;;;14.80;11.30;;;6.70;68.80;;;;;;5095230;28;20063;-49
2022/12/21 08:50:31;;;;;;;16.27;11.75;;;6.80;68.70;;;;;;5094955;28;20028;-52
2022/12/21 08:52:57;;;;;;;14.35;11.60;;;6.90;68.80;;;;;;5095112;28;20024;-51
2022/12/21 08:55:23;;;;;;;15.38;11.65;;;6.90;68.40;;;;;;5094897;28;20034;-49
2022/12/21 08:57:49;;;;;;;13.95;10.00;;;7.00;68.30;;;;;;5094990;28;20019;-52
2022/12/21 09:00:15;;;;;;;14.23;10.30;;;7.00;68.10;;;;;;5094860;28;20161;-49
2022/12/21 09:02:40;;;;;;;13.65;10.20;;;7.00;67.90;;;;;;5094891;28;20038;-55
2022/12/21 09:05:06;;;;;;;13.48;9.60;;;7.00;67.90;;;;;;5094488;28;20543;-52
2022/12/21 09:07:32;;;;;;;12.75;9.30;;;7.00;68.00;;;;;;5094555;28;20062;-53
2022/12/21 09:09:58;;;;;;;11.15;8.65;;;7.00;67.80;;;;;;5094409;28;20020;-51
2022/12/21 09:12:23;;;;;;;12.68;9.00;;;7.00;67.80;;;;;;5094432;28;20035;-52
2022/12/21 09:14:49;;;;;;;13.20;9.90;;;7.10;67.90;;;;;;5094547;28;20056;-51
2022/12/21 09:17:15;;;;;;;17.00;11.68;;;7.10;67.80;;;;;;5094805;28;20512;-51
2022/12/21 09:19:40;;;;;;;16.40;11.05;;;7.20;67.60;;;;;;5094466;28;20036;-51
2022/12/21 09:22:06;;;;;;;13.98;10.80;;;7.20;67.40;;;;;;5094213;28;20028;-52
2022/12/21 09:24:31;;;;;;;13.88;10.25;;;7.30;67.40;;;;;;5094054;28;20378;-54
2022/12/21 09:30:33;;;;;;;11.80;9.50;;;7.20;67.10;;;;;;5094161;28;20027;-54
2022/12/21 09:32:59;;;;;;;13.43;10.18;;;7.20;67.40;;;;;;5093959;28;20437;-55
2022/12/21 09:35:24;;;;;;;14.95;10.77;;;7.20;68.10;;;;;;5093995;28;20028;-54
2022/12/21 09:37:51;;;;;;;13.60;10.38;;;7.10;67.50;;;;;;5094007;28;20103;-53
2022/12/21 09:40:19;;;;;;;15.65;11.25;;;7.10;67.40;;;;;;5093681;28;20031;-53
2022/12/21 09:43:18;;;;;;;13.32;10.18;;;7.10;67.60;;;;;;5093840;28;20073;-54
2022/12/21 09:46:13;;;;;;;13.70;10.48;;;7.10;67.50;;;;;;5093510;28;20108;-52
2022/12/21 09:48:48;;;;;;;13.98;10.35;;;7.20;67.40;;;;;;5091814;28;20115;-52
2022/12/21 09:51:22;;;;;;;15.38;9.48;;;7.20;67.40;;;;;;5093825;28;20028;-54
2022/12/21 09:53:55;;;;;;;13.95;10.63;;;7.20;67.50;;;;;;5094368;28;20031;-53
2022/12/21 09:56:24;;;;;;;14.00;10.48;;;7.20;67.40;;;;;;5093819;28;20024;-51
2022/12/21 09:58:51;;;;;;;13.40;10.27;;;7.30;67.60;;;;;;5093858;28;20093;-53
2022/12/21 11:36:29;;;;;;;13.30;8.95;;;7.70;66.20;;;;;;5076942;28;20078;-56
2022/12/21 11:38:54;;;;;;;12.98;9.88;;;7.70;66.00;;;;;;5075093;28;20032;-51
2022/12/21 11:41:29;;;;;;;17.33;11.07;;;7.80;66.00;;;;;;5076031;28;20089;-52
2022/12/21 11:43:55;;;;;;;16.27;11.73;;;7.90;65.80;;;;;;5075957;28;20025;-51
2022/12/21 11:46:30;;;;;;;16.85;11.80;;;7.90;65.60;;;;;;5075877;28;20032;-53
2022/12/21 11:49:14;;;;;;;17.38;12.85;;;7.90;65.50;;;;;;5076011;28;20028;-50
2022/12/21 11:51:50;;;;;;;18.17;11.80;;;7.90;65.50;;;;;;5075771;28;20059;-53
2022/12/21 11:54:51;;;;;;;16.25;12.25;;;8.00;65.70;;;;;;5075727;28;20020;-51
2022/12/21 11:57:34;;;;;;;16.48;12.05;;;8.00;65.60;;;;;;5072433;28;20033;-52
2022/12/21 12:00:05;;;;;;;14.10;11.00;;;8.00;65.60;;;;;;5075820;28;20356;-53
2022/12/21 12:02:53;;;;;;;15.20;10.98;;;8.00;65.40;;;;;;5075596;28;20048;-50
2022/12/21 12:05:40;;;;;;;14.35;10.50;;;8.00;65.30;;;;;;5075527;28;20094;-52
2022/12/21 12:08:33;;;;;;;14.60;11.07;;;8.00;65.30;;;;;;5075536;28;20037;-49
2022/12/21 12:11:31;;;;;;;16.10;10.40;;;8.00;65.00;;;;;;5075379;28;20020;-53
2022/12/21 12:14:21;;;;;;;13.52;10.57;;;7.90;65.00;;;;;;5054679;28;20115;-53
2022/12/21 12:17:01;;;;;;;12.75;9.07;;;7.90;65.10;;;;;;5075346;28;20024;-52
2022/12/21 12:20:05;;;;;;;11.23;9.20;;;7.90;65.10;;;;;;5075434;28;20040;-52
2022/12/21 12:22:54;;;;;;;11.52;8.77;;;7.80;65.10;;;;;;5075795;28;20032;-53
2022/12/21 12:25:31;;;;;;;14.18;9.43;;;7.80;65.10;;;;;;5075859;28;20032;-52
2022/12/21 12:28:26;;;;;;;14.85;9.57;;;7.80;65.20;;;;;;5074830;28;20497;-53
2022/12/21 12:31:10;;;;;;;13.68;9.30;;;7.80;65.10;;;;;;5074763;28;20379;-52
2022/12/21 12:34:26;;;;;;;14.68;9.65;;;7.70;65.00;;;;;;5074872;28;20028;-54
2022/12/21 12:37:45;;;;;;;14.73;10.70;;;7.70;65.00;;;;;;5048231;28;20425;-54
2022/12/21 12:40:25;;;;;;;14.10;10.05;;;7.70;65.10;;;;;;5013115;28;20506;-52
2022/12/21 12:42:57;;;;;;;13.63;9.40;;;7.60;65.20;;;;;;5074948;28;20107;-54
2022/12/21 12:45:41;;;;;;;12.02;9.27;;;7.70;65.30;;;;;;5075428;28;20028;-54
2022/12/21 12:48:14;;;;;;;11.73;8.63;;;7.70;65.40;;;;;;5074639;28;20020;-55
2022/12/21 12:50:45;;;;;;;14.02;9.80;;;7.70;65.60;;;;;;5075060;28;20410;-55
2022/12/21 12:53:36;;;;;;;13.85;9.35;;;7.70;65.50;;;;;;5074422;28;20070;-53
2022/12/21 12:56:23;;;;;;;14.95;9.90;;;7.70;65.50;;;;;;5074542;28;20086;-52
2022/12/21 12:59:14;;;;;;;13.18;9.10;;;7.80;65.60;;;;;;5074478;28;20028;-55
2022/12/21 13:01:58;;;;;;;14.27;9.50;;;7.80;65.70;;;;;;5074104;28;20024;-55
2022/12/21 13:04:51;;;;;;;14.38;8.70;;;7.70;65.80;;;;;;5074403;28;20425;-55
2022/12/21 13:07:19;;;;;;;11.18;8.32;;;7.70;66.00;;;;;;5074249;28;20375;-56
2022/12/21 13:09:45;;;;;;;13.63;9.73;;;7.80;65.90;;;;;;5074199;28;20028;-56
2022/12/21 13:12:29;;;;;;;13.48;9.77;;;7.80;65.80;;;;;;5074209;28;20070;-56
2022/12/21 13:15:05;;;;;;;15.05;9.98;;;7.70;65.80;;;;;;5074460;28;20060;-56
2022/12/21 13:17:50;;;;;;;13.52;9.35;;;7.70;65.80;;;;;;5074268;28;20029;-55
2022/12/21 13:20:18;;;;;;;12.50;9.07;;;7.70;66.40;;;;;;5073990;28;20031;-53
2022/12/21 13:22:59;;;;;;;14.77;9.60;;;7.70;65.80;;;;;;5074625;28;20024;-54
2022/12/21 13:25:42;;;;;;;12.32;9.07;;;7.70;65.70;;;;;;5074077;28;20426;-51
2022/12/21 13:28:20;;;;;;;15.13;9.93;;;7.70;65.60;;;;;;5074118;28;20078;-54
2022/12/21 13:30:47;;;;;;;13.23;9.60;;;7.70;65.40;;;;;;5074304;28;20017;-54
2022/12/21 13:33:15;;;;;;;12.88;9.05;;;7.60;65.40;;;;;;5074424;28;20031;-54
2022/12/21 13:35:53;;;;;;;13.30;9.48;;;7.50;65.40;;;;;;5087076;28;20054;-54
2022/12/21 13:38:26;;;;;;;15.65;9.82;;;7.40;65.40;;;;;;5093737;28;20019;-56
2022/12/21 13:41:07;;;;;;;13.88;9.02;;;7.40;65.40;;;;;;5094299;28;20038;-54
2022/12/21 13:44:00;;;;;;;12.30;8.98;;;7.40;65.30;;;;;;5094019;28;20024;-54
2022/12/21 13:46:27;;;;;;;11.05;8.20;;;7.40;65.20;;;;;;5093949;28;20032;-54
2022/12/21 13:49:00;;;;;;;14.57;9.60;;;7.40;65.20;;;;;;5094491;28;20033;-55
2022/12/21 13:51:35;;;;;;;11.93;8.75;;;7.30;65.10;;;;;;5093942;28;20020;-53
2022/12/21 13:54:09;;;;;;;12.32;8.98;;;7.30;65.10;;;;;;5094446;28;20405;-55
2022/12/21 13:56:51;;;;;;;13.20;9.70;;;7.30;65.10;;;;;;5111666;27;20466;-55
2022/12/21 13:59:42;;;;;;;11.02;8.98;;;7.20;65.10;;;;;;5114000;28;20111;-51
2022/12/21 14:02:36;;;;;;;13.55;9.73;;;7.10;65.20;;;;;;5114193;28;20020;-54
2022/12/21 14:05:15;;;;;;;11.60;9.05;;;7.00;65.60;;;;;;5114210;28;20024;-54
2022/12/21 14:08:02;;;;;;;13.30;10.18;;;7.00;65.60;;;;;;5110216;28;20062;-54
2022/12/21 14:11:05;;;;;;;16.75;10.50;;;7.10;65.50;;;;;;5113881;28;20015;-55
2022/12/21 14:13:57;;;;;;;17.40;11.45;;;7.00;65.50;;;;;;5106509;28;20032;-55
2022/12/21 14:16:30;;;;;;;20.83;13.98;;;7.00;65.60;;;;;;5113866;28;20020;-55
2022/12/21 14:18:58;;;;;;;17.20;11.32;;;7.10;65.40;;;;;;5113954;28;20167;-54
2022/12/21 14:21:26;;;;;;;18.33;12.27;;;7.00;65.40;;;;;;5100049;28;20055;-55
2022/12/21 14:23:56;;;;;;;16.02;10.82;;;7.00;65.50;;;;;;5093526;28;20073;-53
2022/12/21 14:26:41;;;;;;;15.73;12.25;;;6.90;65.50;;;;;;5093086;28;20111;-53
2022/12/21 14:29:19;;;;;;;17.85;12.18;;;6.90;66.30;;;;;;5093775;28;20455;-54
2022/12/21 14:31:56;;;;;;;16.48;11.50;;;6.90;65.70;;;;;;5093341;28;20020;-53
2022/12/21 14:34:23;;;;;;;21.00;13.40;;;6.90;65.50;;;;;;5093313;28;20024;-53
2022/12/21 14:37:10;;;;;;;19.88;13.07;;;6.90;65.50;;;;;;5093383;28;20359;-54
2022/12/21 14:39:44;;;;;;;21.40;14.82;;;6.90;65.60;;;;;;5103208;28;20028;-52
2022/12/21 14:42:30;;;;;;;22.65;15.57;;;6.90;65.60;;;;;;5113714;28;20450;-53
2022/12/21 14:45:11;;;;;;;20.20;14.52;;;6.90;65.50;;;;;;5113727;28;20028;-54
2022/12/21 14:47:48;;;;;;;23.55;15.23;;;6.90;65.40;;;;;;5116209;28;20059;-54
2022/12/21 14:50:23;;;;;;;22.52;14.68;;;7.00;65.40;;;;;;5117608;28;20039;-53
2022/12/21 14:52:59;;;;;;;22.55;14.57;;;7.00;65.40;;;;;;5117496;28;20108;-53
2022/12/21 14:55:44;;;;;;;19.95;13.40;;;7.00;65.50;;;;;;5117549;28;20039;-54
2022/12/21 14:58:18;;;;;;;19.70;14.32;;;7.00;65.50;;;;;;5117078;28;20393;-55
2022/12/21 15:01:28;;;;;;;18.50;13.68;;;6.90;65.40;;;;;;5116747;28;20381;-53
2022/12/21 15:03:58;;;;;;;17.73;11.52;;;6.90;65.40;;;;;;5078281;28;20036;-54
2022/12/21 15:06:39;;;;;;;17.70;12.38;;;6.90;65.40;;;;;;5117310;28;20116;-55
2022/12/21 15:09:20;;;;;;;18.08;11.98;;;6.90;65.40;;;;;;5117393;28;20063;-54
2022/12/21 15:11:49;;;;;;;17.08;11.88;;;6.90;65.60;;;;;;5097387;28;20040;-54
2022/12/21 15:14:46;;;;;;;19.83;12.85;;;6.90;65.50;;;;;;5120639;27;20027;-53
2022/12/21 15:17:16;;;;;;;17.73;12.82;;;6.80;65.50;;;;;;5122648;27;20489;-52
2022/12/21 15:19:45;;;;;;;17.55;12.85;;;6.80;65.40;;;;;;5137720;27;20023;-52
2022/12/21 15:22:31;;;;;;;16.95;12.80;;;6.70;66.40;;;;;;5137320;27;20493;-54
2022/12/21 15:25:12;;;;;;;19.30;14.07;;;6.70;65.80;;;;;;5120166;27;20092;-51
2022/12/21 15:27:43;;;;;;;19.95;13.65;;;6.60;65.80;;;;;;5116629;28;20047;-51
2022/12/21 15:30:14;;;;;;;21.25;14.35;;;6.60;66.00;;;;;;5116919;28;20058;-52
2022/12/21 15:32:47;;;;;;;18.23;14.25;;;6.50;66.00;;;;;;5116800;28;20020;-52
2022/12/21 15:35:28;;;;;;;24.63;15.55;;;6.50;66.20;;;;;;5116468;28;20059;-54
2022/12/21 15:38:02;;;;;;;20.38;14.13;;;6.40;66.40;;;;;;5116557;28;20073;-53
2022/12/21 15:40:37;;;;;;;18.83;12.82;;;6.30;66.60;;;;;;5116925;28;20031;-53
2022/12/21 15:43:16;;;;;;;18.85;12.75;;;6.20;66.70;;;;;;5116649;28;20084;-54
2022/12/21 15:46:18;;;;;;;15.45;11.93;;;6.10;66.90;;;;;;5117060;28;20023;-51
2022/12/21 15:49:10;;;;;;;18.45;12.57;;;6.10;67.10;;;;;;5116520;28;20112;-54
2022/12/21 15:51:41;;;;;;;18.88;12.05;;;6.00;67.10;;;;;;5116472;28;20054;-57
2022/12/21 15:54:14;;;;;;;;;;;6.00;67.30;;;;;;5116804;28;20420;-53
2022/12/21 15:56:54;;;;;;;16.20;11.35;;;5.90;67.60;;;;;;5116769;28;20365;-53
2022/12/21 15:59:38;;;;;;;17.23;12.10;;;5.90;67.40;;;;;;5116330;28;20059;-52